createdAt,value
2018-11-23T00:01:10.265Z,18.20
2018-11-23T00:03:38.719Z,16.93
2018-11-23T00:06:07.202Z,15.68
2018-11-23T00:08:35.678Z,20.30
2018-11-23T00:11:04.182Z,17.07
2018-11-23T00:13:32.644Z,21.45
2018-11-23T00:16:01.102Z,15.20
2018-11-23T00:18:29.566Z,23.98
2018-11-23T00:20:58.037Z,23.98
2018-11-23T00:23:26.529Z,27.42
2018-11-23T00:25:54.980Z,27.22
2018-11-23T00:28:23.432Z,21.48
2018-11-23T00:30:51.877Z,16.25
2018-11-23T00:33:20.337Z,22.27
2018-11-23T00:35:48.805Z,23.77
2018-11-23T00:38:17.253Z,18.77
2018-11-23T00:40:45.705Z,19.67
2018-11-23T00:43:14.270Z,21.05
2018-11-23T00:45:43.057Z,15.48
2018-11-23T00:48:11.218Z,16.97
2018-11-23T00:50:39.656Z,19.02
2018-11-23T00:53:08.131Z,27.00
2018-11-23T00:55:36.584Z,23.32
2018-11-23T00:58:05.058Z,21.55
2018-11-23T01:00:34.468Z,19.15
2018-11-23T01:03:03.993Z,16.95
2018-11-23T01:05:32.461Z,19.85
2018-11-23T01:08:01.019Z,23.70
2018-11-23T01:10:30.356Z,21.07
2018-11-23T01:12:58.935Z,19.92
2018-11-23T01:15:27.468Z,19.45
2018-11-23T01:17:55.924Z,14.18
2018-11-23T01:20:26.549Z,17.77
2018-11-23T01:22:55.723Z,20.45
2018-11-23T01:25:25.142Z,16.95
2018-11-23T01:27:54.421Z,16.55
2018-11-23T01:30:25.307Z,14.15
2018-11-23T01:32:53.802Z,18.20
2018-11-23T01:35:22.306Z,16.95
2018-11-23T01:37:50.796Z,11.93
2018-11-23T01:40:21.157Z,17.35
2018-11-23T01:42:49.711Z,15.13
2018-11-23T01:45:18.285Z,13.48
2018-11-23T01:47:46.781Z,12.85
2018-11-23T01:50:18.322Z,16.70
2018-11-23T01:52:47.956Z,19.30
2018-11-23T01:55:17.264Z,19.27
2018-11-23T01:57:46.045Z,19.32
2018-11-23T02:00:16.505Z,17.57
2018-11-23T02:02:45.552Z,18.52
2018-11-23T02:05:14.017Z,21.50
2018-11-23T02:07:42.497Z,17.87
2018-11-23T02:10:12.461Z,15.85
2018-11-23T02:12:40.892Z,23.05
2018-11-23T02:15:13.928Z,14.93
2018-11-23T02:17:42.376Z,23.57
2018-11-23T02:20:12.197Z,17.95
2018-11-23T02:22:40.645Z,17.00
2018-11-23T02:25:09.120Z,14.10
2018-11-23T02:27:37.573Z,18.60
2018-11-23T02:30:10.386Z,14.35
2018-11-23T02:32:38.820Z,14.45
2018-11-23T02:35:07.312Z,12.82
2018-11-23T02:37:35.781Z,16.67
2018-11-23T02:40:04.493Z,18.02
2018-11-23T02:42:32.973Z,16.90
2018-11-23T02:45:01.474Z,19.75
2018-11-23T02:47:29.909Z,14.95
2018-11-23T02:49:58.325Z,22.50
2018-11-23T02:52:26.760Z,16.93
2018-11-23T02:54:55.230Z,16.52
2018-11-23T02:57:23.677Z,22.07
2018-11-23T02:59:52.117Z,16.90
2018-11-23T03:02:20.561Z,14.00
2018-11-23T03:04:48.984Z,20.00
2018-11-23T03:07:17.413Z,15.20
2018-11-23T03:09:45.841Z,17.25
2018-11-23T03:12:14.330Z,17.87
2018-11-23T03:14:42.744Z,16.25
2018-11-23T03:17:11.185Z,12.47
2018-11-23T03:19:39.608Z,19.35
2018-11-23T03:22:08.100Z,16.10
2018-11-23T03:24:36.537Z,12.98
2018-11-23T03:27:05.032Z,15.18
2018-11-23T03:29:33.455Z,14.35
2018-11-23T03:32:01.905Z,19.70
2018-11-23T03:34:30.334Z,14.23
2018-11-23T03:36:58.782Z,18.95
2018-11-23T03:39:30.410Z,15.03
2018-11-23T03:41:55.765Z,19.75
2018-11-23T03:44:24.254Z,16.07
2018-11-23T03:46:52.741Z,17.40
2018-11-23T03:49:21.201Z,19.75
2018-11-23T03:51:49.673Z,21.48
2018-11-23T03:54:18.138Z,21.82
2018-11-23T03:56:46.615Z,25.77
2018-11-23T03:59:15.094Z,21.00
2018-11-23T04:01:43.546Z,22.58
2018-11-23T04:04:12.016Z,21.75
2018-11-23T04:06:40.465Z,17.57
2018-11-23T04:09:09.235Z,20.00
2018-11-23T04:11:38.002Z,16.07
2018-11-23T04:14:06.505Z,15.30
2018-11-23T04:16:34.953Z,15.75
2018-11-23T04:19:03.417Z,14.38
2018-11-23T04:21:31.869Z,14.87
2018-11-23T04:24:00.341Z,14.53
2018-11-23T04:26:28.785Z,19.90
2018-11-23T04:28:57.250Z,17.48
2018-11-23T04:31:25.684Z,14.07
2018-11-23T04:33:54.137Z,19.40
2018-11-23T04:36:22.577Z,22.48
2018-11-23T04:38:51.033Z,16.40
2018-11-23T04:41:19.502Z,20.40
2018-11-23T04:43:48.305Z,18.32
2018-11-23T04:46:16.757Z,20.43
2018-11-23T04:48:45.206Z,19.42
2018-11-23T04:51:13.676Z,21.48
2018-11-23T04:53:42.137Z,21.52
2018-11-23T04:56:10.610Z,21.20
2018-11-23T05:01:18.153Z,25.30
2018-11-23T05:03:46.572Z,22.42
2018-11-23T05:06:15.131Z,21.50
2018-11-23T05:08:43.589Z,29.05
2018-11-23T05:11:12.035Z,22.40
2018-11-23T05:13:40.449Z,24.25
2018-11-23T05:16:08.876Z,24.37
2018-11-23T05:18:37.292Z,24.90
2018-11-23T05:21:05.843Z,30.85
2018-11-23T05:23:34.256Z,27.05
2018-11-23T05:26:02.704Z,26.80
2018-11-23T05:28:31.113Z,18.05
2018-11-23T05:30:59.544Z,26.30
2018-11-23T05:33:27.957Z,21.95
2018-11-23T05:35:56.396Z,25.40
2018-11-23T05:38:24.813Z,24.25
2018-11-23T05:40:53.249Z,23.15
2018-11-23T05:43:21.795Z,24.15
2018-11-23T05:45:50.224Z,24.92
2018-11-23T05:48:19.002Z,26.23
2018-11-23T05:50:47.128Z,30.10
2018-11-23T05:53:15.577Z,24.63
2018-11-23T05:55:43.992Z,24.55
2018-11-23T05:58:12.424Z,24.20
2018-11-23T06:00:40.909Z,28.83
2018-11-23T06:03:09.352Z,23.10
2018-11-23T06:05:37.780Z,21.25
2018-11-23T06:08:06.233Z,17.60
2018-11-23T06:10:34.642Z,31.75
2018-11-23T06:13:03.089Z,34.03
2018-11-23T06:15:31.501Z,34.10
2018-11-23T06:17:59.981Z,29.23
2018-11-23T06:20:28.393Z,32.38
2018-11-23T06:22:56.897Z,35.43
2018-11-23T06:25:43.089Z,28.92
2018-11-23T06:28:11.525Z,39.95
2018-11-23T06:30:39.949Z,52.67
2018-11-23T06:33:47.863Z,55.67
2018-11-23T06:36:16.284Z,55.30
2018-11-23T06:38:44.738Z,49.30
2018-11-23T06:41:13.295Z,49.45
2018-11-23T06:43:41.780Z,51.45
2018-11-23T06:46:11.501Z,47.93
2018-11-23T06:48:39.996Z,49.35
2018-11-23T06:51:08.628Z,63.35
2018-11-23T06:53:37.080Z,62.90
2018-11-23T06:56:05.969Z,72.00
2018-11-23T06:58:34.396Z,75.10
2018-11-23T07:01:02.829Z,79.25
2018-11-23T07:03:31.321Z,73.65
2018-11-23T07:06:00.040Z,63.20
2018-11-23T07:08:28.461Z,59.93
2018-11-23T07:10:59.677Z,59.10
2018-11-23T07:13:28.965Z,58.73
2018-11-23T07:15:57.455Z,60.05
2018-11-23T07:18:25.890Z,70.20
2018-11-23T07:20:54.329Z,62.13
2018-11-23T07:23:22.836Z,70.42
2018-11-23T07:25:51.291Z,65.30
2018-11-23T07:28:19.713Z,64.42
2018-11-23T07:30:48.200Z,52.73
2018-11-23T07:33:16.648Z,63.60
2018-11-23T07:35:45.093Z,75.75
2018-11-23T07:38:13.574Z,65.42
2018-11-23T07:40:53.957Z,70.72
2018-11-23T07:43:22.520Z,63.20
2018-11-23T07:45:50.954Z,69.03
2018-11-23T07:48:19.374Z,68.07
2018-11-23T07:50:47.825Z,58.52
2018-11-23T07:53:16.253Z,59.77
2018-11-23T07:55:44.729Z,63.63
2018-11-23T07:58:13.144Z,65.47
2018-11-23T08:00:41.598Z,55.23
2018-11-23T08:03:10.026Z,61.18
2018-11-23T08:05:38.496Z,62.65
2018-11-23T08:08:07.132Z,59.83
2018-11-23T08:10:34.807Z,53.40
2018-11-23T08:13:03.246Z,57.10
2018-11-23T08:15:31.721Z,74.37
2018-11-23T08:18:00.145Z,60.85
2018-11-23T08:20:28.615Z,56.70
2018-11-23T08:22:57.029Z,69.67
2018-11-23T08:25:26.034Z,70.45
2018-11-23T08:27:55.625Z,56.05
2018-11-23T08:30:28.415Z,62.88
2018-11-23T08:32:57.201Z,60.92
2018-11-23T08:35:25.618Z,65.10
2018-11-23T08:37:54.054Z,53.42
2018-11-23T08:40:24.561Z,61.23
2018-11-23T08:42:53.689Z,52.73
2018-11-23T08:45:23.483Z,60.03
2018-11-23T08:47:52.089Z,68.07
2018-11-23T08:50:27.004Z,54.63
2018-11-23T08:52:55.441Z,50.20
2018-11-23T08:55:23.953Z,59.18
2018-11-23T08:57:53.165Z,50.20
2018-11-23T09:00:25.144Z,55.88
2018-11-23T09:02:55.069Z,49.58
2018-11-23T09:05:23.514Z,60.40
2018-11-23T09:07:53.174Z,54.08
2018-11-23T09:10:23.209Z,56.90
2018-11-23T09:12:53.427Z,64.62
2018-11-23T09:15:21.904Z,73.15
2018-11-23T09:17:50.349Z,59.50
2018-11-23T09:20:19.175Z,66.20
2018-11-23T09:22:47.668Z,61.02
2018-11-23T09:25:17.545Z,62.10
2018-11-23T09:27:45.965Z,65.57
2018-11-23T09:30:21.717Z,60.85
2018-11-23T09:32:51.063Z,59.10
2018-11-23T09:35:19.743Z,58.70
2018-11-23T09:37:48.813Z,63.68
2018-11-23T09:40:18.885Z,55.33
2018-11-23T09:42:47.397Z,70.42
2018-11-23T09:45:20.581Z,67.35
2018-11-23T09:47:50.057Z,67.72
2018-11-23T09:50:19.674Z,79.45
2018-11-23T09:52:49.261Z,73.35
2018-11-23T09:55:18.113Z,72.12
2018-11-23T09:57:46.537Z,67.67
2018-11-23T10:00:18.954Z,70.90
2018-11-23T10:02:48.304Z,65.97
2018-11-23T10:05:17.323Z,72.47
2018-11-23T10:07:47.112Z,72.72
2018-11-23T10:10:16.436Z,77.60
2018-11-23T10:12:44.901Z,77.58
2018-11-23T10:15:14.826Z,71.30
2018-11-23T10:17:43.319Z,74.03
2018-11-23T10:20:14.062Z,77.92
2018-11-23T10:22:42.779Z,73.62
2018-11-23T10:25:12.683Z,74.42
2018-11-23T10:27:41.736Z,85.65
2018-11-23T10:30:13.768Z,79.15
2018-11-23T10:32:42.241Z,94.87
2018-11-23T10:35:11.305Z,75.08
2018-11-23T10:37:40.681Z,77.90
2018-11-23T10:40:12.662Z,86.15
2018-11-23T10:42:41.342Z,79.67
2018-11-23T10:45:15.749Z,69.03
2018-11-23T10:47:45.234Z,70.08
2018-11-23T10:50:15.609Z,76.77
2018-11-23T10:52:44.127Z,80.15
2018-11-23T10:55:15.068Z,81.75
2018-11-23T10:57:43.542Z,77.10
2018-11-23T11:00:19.405Z,83.07
2018-11-23T11:03:54.032Z,74.17
2018-11-23T11:06:27.768Z,82.95
2018-11-23T11:08:56.214Z,76.10
2018-11-23T11:11:24.671Z,74.55
2018-11-23T11:13:53.094Z,59.73
2018-11-23T11:16:21.572Z,60.95
2018-11-23T11:18:50.009Z,64.80
2018-11-23T11:21:18.445Z,58.08
2018-11-23T11:23:46.881Z,70.15
2018-11-23T11:26:15.325Z,61.68
2018-11-23T11:28:43.749Z,64.72
2018-11-23T11:31:12.189Z,50.90
2018-11-23T11:33:40.605Z,59.27
2018-11-23T11:36:09.092Z,60.13
2018-11-23T11:38:37.516Z,71.63
2018-11-23T11:41:06.065Z,61.27
2018-11-23T11:43:34.509Z,58.08
2018-11-23T11:46:02.955Z,63.55
2018-11-23T11:48:31.381Z,64.70
2018-11-23T11:50:59.829Z,60.40
2018-11-23T11:53:28.241Z,65.25
2018-11-23T11:55:56.674Z,69.20
2018-11-23T11:58:25.105Z,62.53
2018-11-23T12:00:53.551Z,61.70
2018-11-23T12:03:21.992Z,55.52
2018-11-23T12:05:50.425Z,58.87
2018-11-23T12:08:18.865Z,61.50
2018-11-23T12:10:47.297Z,50.30
2018-11-23T12:13:15.794Z,63.67
2018-11-23T12:15:44.213Z,55.17
2018-11-23T12:18:12.680Z,66.90
2018-11-23T12:20:41.097Z,59.93
2018-11-23T12:23:09.548Z,61.77
2018-11-23T12:25:38.001Z,51.58
2018-11-23T12:28:06.485Z,53.00
2018-11-23T12:30:34.903Z,62.65
2018-11-23T12:33:03.345Z,62.13
2018-11-23T12:35:31.768Z,60.28
2018-11-23T12:38:00.234Z,58.78
2018-11-23T12:40:28.665Z,64.67
2018-11-23T12:42:57.108Z,60.33
2018-11-23T12:45:25.553Z,61.58
2018-11-23T12:47:54.001Z,56.70
2018-11-23T12:50:23.424Z,65.97
2018-11-23T12:52:51.910Z,58.85
2018-11-23T12:55:20.792Z,56.57
2018-11-23T12:57:50.264Z,59.40
2018-11-23T13:00:24.025Z,61.42
2018-11-23T13:02:54.153Z,62.88
2018-11-23T13:05:23.624Z,59.63
2018-11-23T13:07:53.052Z,65.50
2018-11-23T13:10:22.090Z,67.05
2018-11-23T13:12:51.048Z,58.38
2018-11-23T13:15:19.061Z,60.20
2018-11-23T13:17:47.527Z,54.40
2018-11-23T13:20:16.260Z,54.50
2018-11-23T13:22:44.805Z,65.10
2018-11-23T13:25:15.598Z,70.33
2018-11-23T13:27:44.112Z,59.53
2018-11-23T13:30:18.396Z,58.30
2018-11-23T13:32:46.828Z,68.05
2018-11-23T13:35:16.394Z,56.65
2018-11-23T13:37:44.809Z,71.37
2018-11-23T13:40:15.237Z,68.53
2018-11-23T13:42:43.971Z,61.80
2018-11-23T13:45:14.646Z,62.30
2018-11-23T13:47:43.099Z,59.17
2018-11-23T13:50:14.160Z,62.13
2018-11-23T13:52:45.672Z,53.97
2018-11-23T13:55:14.356Z,70.80
2018-11-23T13:57:42.835Z,56.00
2018-11-23T14:00:15.609Z,61.47
2018-11-23T14:02:44.635Z,66.50
2018-11-23T14:05:15.496Z,70.53
2018-11-23T14:07:44.963Z,78.67
2018-11-23T14:10:14.900Z,70.87
2018-11-23T14:12:43.772Z,55.25
2018-11-23T14:15:14.404Z,56.30
2018-11-23T14:17:43.506Z,55.03
2018-11-23T14:20:13.241Z,70.93
2018-11-23T14:22:41.717Z,56.87
2018-11-23T14:25:12.190Z,69.22
2018-11-23T14:27:40.932Z,61.55
2018-11-23T14:30:11.973Z,63.07
2018-11-23T14:32:40.755Z,61.00
2018-11-23T14:35:11.819Z,69.90
2018-11-23T14:37:40.676Z,60.20
2018-11-23T14:40:10.237Z,73.17
2018-11-23T14:42:39.511Z,67.85
2018-11-23T14:45:10.649Z,59.67
2018-11-23T14:47:39.164Z,67.72
2018-11-23T14:50:13.023Z,59.48
2018-11-23T14:52:41.710Z,63.70
2018-11-23T14:55:10.152Z,66.37
2018-11-23T14:57:39.716Z,56.92
2018-11-23T15:00:15.652Z,60.05
2018-11-23T15:02:45.073Z,60.20
2018-11-23T15:05:13.593Z,55.80
2018-11-23T15:07:42.049Z,61.42
2018-11-23T15:10:13.052Z,56.05
2018-11-23T15:12:41.545Z,59.00
2018-11-23T15:15:14.131Z,53.33
2018-11-23T15:17:43.613Z,57.15
2018-11-23T15:20:14.793Z,62.78
2018-11-23T15:22:43.684Z,51.70
2018-11-23T15:25:12.177Z,56.60
2018-11-23T15:27:41.573Z,61.50
2018-11-23T15:30:13.616Z,53.90
2018-11-23T15:32:42.641Z,57.65
2018-11-23T15:35:11.081Z,55.80
2018-11-23T15:37:39.532Z,53.87
2018-11-23T15:40:12.256Z,53.90
2018-11-23T15:42:40.726Z,56.47
2018-11-23T15:45:12.401Z,62.20
2018-11-23T15:47:40.852Z,64.25
2018-11-23T15:50:11.609Z,51.53
2018-11-23T15:52:40.140Z,56.88
2018-11-23T15:55:11.952Z,55.88
2018-11-23T15:57:40.864Z,54.10
2018-11-23T16:00:12.608Z,52.08
2018-11-23T16:02:41.073Z,56.70
2018-11-23T16:05:10.520Z,66.60
2018-11-23T16:07:38.960Z,66.45
2018-11-23T16:10:11.857Z,60.03
2018-11-23T16:12:40.341Z,64.90
2018-11-23T16:15:09.338Z,65.12
2018-11-23T16:17:38.025Z,59.83
2018-11-23T16:20:09.440Z,57.97
2018-11-23T16:22:37.900Z,56.58
2018-11-23T16:25:07.786Z,62.23
2018-11-23T16:27:36.369Z,66.67
2018-11-23T16:30:09.121Z,48.73
2018-11-23T16:32:37.558Z,61.13
2018-11-23T16:35:06.308Z,71.35
2018-11-23T16:37:34.757Z,61.50
2018-11-23T16:40:03.263Z,65.17
2018-11-23T16:42:31.718Z,64.65
2018-11-23T16:45:00.170Z,72.45
2018-11-23T16:47:28.593Z,77.58
2018-11-23T16:49:57.036Z,73.17
2018-11-23T16:52:25.496Z,54.83
2018-11-23T16:54:53.940Z,68.42
2018-11-23T16:57:22.364Z,66.85
2018-11-23T16:59:50.817Z,70.08
2018-11-23T17:02:19.229Z,63.20
2018-11-23T17:04:47.717Z,57.85
2018-11-23T17:07:16.137Z,78.28
2018-11-23T17:09:44.581Z,73.52
2018-11-23T17:12:12.996Z,75.42
2018-11-23T17:14:41.428Z,70.42
2018-11-23T17:17:09.857Z,82.12
2018-11-23T17:19:38.309Z,70.95
2018-11-23T17:22:07.154Z,88.17
2018-11-23T17:24:35.589Z,84.50
2018-11-23T17:27:04.043Z,80.67
2018-11-23T17:29:32.626Z,78.52
2018-11-23T17:32:01.050Z,79.32
2018-11-23T17:34:29.488Z,71.77
2018-11-23T17:36:58.009Z,78.80
2018-11-23T17:39:26.440Z,77.20
2018-11-23T17:41:54.912Z,87.02
2018-11-23T17:44:23.401Z,76.97
2018-11-23T17:46:51.809Z,89.67
2018-11-23T17:49:20.476Z,71.67
2018-11-23T17:51:48.900Z,80.95
2018-11-23T17:54:17.414Z,97.97
2018-11-23T17:56:45.827Z,86.92
2018-11-23T17:59:14.241Z,79.20
2018-11-23T18:01:42.682Z,87.02
2018-11-23T18:04:11.105Z,91.40
2018-11-23T18:06:39.548Z,81.65
2018-11-23T18:09:08.421Z,75.65
2018-11-23T18:11:37.001Z,83.40
2018-11-23T18:14:05.778Z,87.70
2018-11-23T18:16:34.213Z,71.53
2018-11-23T18:19:02.633Z,80.35
2018-11-23T18:21:31.084Z,95.15
2018-11-23T18:23:59.505Z,82.72
2018-11-23T18:26:28.009Z,65.23
2018-11-23T18:28:56.472Z,82.33
2018-11-23T18:31:24.980Z,86.32
2018-11-23T18:33:53.451Z,81.60
2018-11-23T18:36:21.911Z,99.15
2018-11-23T18:38:50.346Z,88.63
2018-11-23T18:41:18.790Z,82.72
2018-11-23T18:43:47.248Z,87.10
2018-11-23T18:46:15.676Z,86.97
2018-11-23T18:48:44.133Z,88.85
2018-11-23T18:51:12.573Z,95.90
2018-11-23T18:53:41.005Z,90.00
2018-11-23T18:56:09.444Z,96.28
2018-11-23T18:58:37.886Z,78.12
2018-11-23T19:01:06.362Z,86.95
2018-11-23T19:03:34.788Z,92.37
2018-11-23T19:06:03.219Z,88.92
2018-11-23T19:08:31.661Z,95.40
2018-11-23T19:11:00.087Z,103.92
2018-11-23T19:13:28.549Z,99.60
2018-11-23T19:15:56.965Z,90.93
2018-11-23T19:18:25.442Z,112.25
2018-11-23T19:20:53.864Z,94.10
2018-11-23T19:23:22.298Z,96.97
2018-11-23T19:25:50.739Z,104.17
2018-11-23T19:28:19.180Z,97.00
2018-11-23T19:30:47.605Z,97.90
2018-11-23T19:33:16.032Z,120.27
2018-11-23T19:35:44.473Z,91.02
2018-11-23T19:38:12.916Z,102.72
2018-11-23T19:40:41.325Z,99.87
2018-11-23T19:43:09.773Z,94.50
2018-11-23T19:45:38.204Z,79.70
2018-11-23T19:48:06.996Z,96.13
2018-11-23T19:50:35.408Z,89.57
2018-11-23T19:53:03.904Z,85.80
2018-11-23T19:55:32.345Z,71.63
2018-11-23T19:58:00.797Z,88.97
2018-11-23T20:00:29.237Z,88.37
2018-11-23T20:02:57.668Z,90.77
2018-11-23T20:05:26.085Z,77.83
2018-11-23T20:07:55.916Z,79.33
2018-11-23T20:10:24.901Z,86.10
2018-11-23T20:12:55.669Z,81.05
2018-11-23T20:15:24.161Z,84.47
2018-11-23T20:17:52.649Z,82.47
2018-11-23T20:20:21.101Z,80.40
2018-11-23T20:22:50.390Z,75.43
2018-11-23T20:25:20.545Z,74.75
2018-11-23T20:27:50.220Z,73.80
2018-11-23T20:30:19.434Z,83.37
2018-11-23T20:32:47.914Z,65.27
2018-11-23T20:35:17.441Z,71.63
2018-11-23T20:37:45.878Z,67.23
2018-11-23T20:40:22.981Z,76.07
2018-11-23T20:42:51.554Z,77.27
2018-11-23T20:45:20.005Z,79.40
2018-11-23T20:47:48.433Z,72.63
2018-11-23T20:50:17.656Z,77.40
2018-11-23T20:52:46.076Z,71.93
2018-11-23T20:55:17.693Z,65.70
2018-11-23T20:57:46.162Z,66.10
2018-11-23T21:00:15.593Z,76.42
2018-11-23T21:02:44.527Z,73.53
2018-11-23T21:05:14.102Z,70.20
2018-11-23T21:07:42.557Z,72.33
2018-11-23T21:10:19.626Z,80.03
2018-11-23T21:12:40.743Z,82.67
2018-11-23T21:15:30.929Z,74.20
2018-11-23T21:18:01.558Z,78.62
2018-11-23T21:20:29.436Z,74.93
2018-11-23T21:22:57.885Z,73.73
2018-11-23T21:25:26.345Z,72.40
2018-11-23T21:27:54.855Z,87.47
2018-11-23T21:30:23.966Z,78.37
2018-11-23T21:32:53.348Z,84.40
2018-11-23T21:35:21.921Z,75.62
2018-11-23T21:37:50.341Z,74.33
2018-11-23T21:40:18.789Z,68.63
2018-11-23T21:42:47.253Z,73.47
2018-11-23T21:45:19.579Z,76.35
2018-11-23T21:47:48.018Z,73.40
2018-11-23T21:50:24.962Z,72.53
2018-11-23T21:52:47.634Z,71.73
2018-11-23T21:55:21.369Z,71.07
2018-11-23T21:57:49.961Z,71.80
2018-11-23T22:00:18.508Z,65.93
2018-11-23T22:02:46.950Z,64.47
2018-11-23T22:05:15.481Z,72.92
2018-11-23T22:07:44.021Z,78.43
2018-11-23T22:10:17.302Z,78.43
2018-11-23T22:12:45.829Z,67.13
2018-11-23T22:15:15.682Z,78.00
2018-11-23T22:17:44.143Z,68.73
2018-11-23T22:20:14.734Z,81.97
2018-11-23T22:22:43.266Z,71.33
2018-11-23T22:25:12.777Z,59.20
2018-11-23T22:27:41.290Z,64.33
2018-11-23T22:30:12.247Z,74.77
2018-11-23T22:32:40.737Z,69.07
2018-11-23T22:35:10.172Z,58.50
2018-11-23T22:37:38.621Z,73.63
2018-11-23T22:40:13.894Z,66.73
2018-11-23T22:42:44.437Z,65.10
2018-11-23T22:45:13.632Z,65.03
2018-11-23T22:47:42.111Z,64.63
2018-11-23T22:50:12.717Z,72.25
2018-11-23T22:52:41.182Z,67.23
2018-11-23T22:55:10.852Z,64.13
2018-11-23T22:57:39.277Z,70.17
2018-11-23T23:00:21.197Z,70.93
2018-11-23T23:02:50.176Z,60.83
2018-11-23T23:05:19.733Z,61.50
2018-11-23T23:07:48.149Z,67.90
2018-11-23T23:10:16.589Z,66.67
2018-11-23T23:12:45.017Z,62.30
2018-11-23T23:15:13.489Z,54.80
2018-11-23T23:17:42.173Z,57.57
2018-11-23T23:20:13.857Z,58.80
2018-11-23T23:22:42.281Z,60.80
2018-11-23T23:25:11.596Z,64.57
2018-11-23T23:27:40.021Z,59.63
2018-11-23T23:30:11.524Z,64.77
2018-11-23T23:32:40.048Z,65.70
2018-11-23T23:35:09.524Z,63.60
2018-11-23T23:37:38.051Z,61.90
2018-11-23T23:40:09.336Z,68.67
2018-11-23T23:42:37.802Z,67.47
2018-11-23T23:45:10.130Z,65.67
2018-11-23T23:47:38.634Z,62.45
2018-11-23T23:50:12.189Z,58.75
2018-11-23T23:52:40.613Z,65.83
2018-11-23T23:55:09.800Z,64.30
2018-11-23T23:57:38.853Z,58.87
